createdAt,value
2019-04-29T00:01:40.113Z,99.60
2019-04-29T00:04:10.331Z,98.60
2019-04-29T00:06:40.139Z,98.90
2019-04-29T00:09:13.070Z,99.00
2019-04-29T00:11:43.150Z,99.80
2019-04-29T00:14:13.196Z,98.40
2019-04-29T00:16:50.272Z,99.50
2019-04-29T00:19:27.421Z,99.90
2019-04-29T00:21:57.774Z,99.90
2019-04-29T00:24:27.421Z,99.90
2019-04-29T00:26:56.939Z,99.90
2019-04-29T00:29:26.547Z,99.90
2019-04-29T00:31:55.993Z,99.90
2019-04-29T00:34:25.885Z,99.90
2019-04-29T00:36:57.876Z,99.90
2019-04-29T00:39:29.405Z,99.90
2019-04-29T00:42:06.771Z,99.90
2019-04-29T00:44:36.501Z,99.90
2019-04-29T00:47:06.462Z,99.90
2019-04-29T00:49:36.327Z,99.90
2019-04-29T00:52:05.985Z,99.90
2019-04-29T00:54:45.654Z,99.90
2019-04-29T00:57:15.170Z,99.90
2019-04-29T00:59:44.690Z,99.90
2019-04-29T01:02:15.371Z,99.90
2019-04-29T01:04:44.881Z,99.90
2019-04-29T01:07:14.401Z,99.90
2019-04-29T01:09:43.929Z,99.90
2019-04-29T01:12:13.443Z,99.90
2019-04-29T01:14:43.351Z,99.90
2019-04-29T01:17:12.907Z,99.90
2019-04-29T01:19:42.764Z,99.90
2019-04-29T01:22:12.575Z,99.90
2019-04-29T01:24:42.268Z,99.90
2019-04-29T01:27:19.277Z,99.90
2019-04-29T01:29:48.821Z,99.90
2019-04-29T01:32:18.895Z,99.90
2019-04-29T01:34:55.332Z,99.90
2019-04-29T01:37:26.503Z,99.90
2019-04-29T01:39:58.022Z,99.90
2019-04-29T01:42:31.907Z,99.90
2019-04-29T01:45:01.441Z,99.90
2019-04-29T01:47:30.987Z,99.90
2019-04-29T01:50:00.512Z,99.90
2019-04-29T01:52:30.390Z,99.90
2019-04-29T01:55:00.011Z,99.90
2019-04-29T01:57:29.521Z,99.90
2019-04-29T01:59:59.416Z,99.90
2019-04-29T02:02:28.957Z,99.90
2019-04-29T02:04:58.507Z,99.90
2019-04-29T02:07:27.946Z,99.90
2019-04-29T02:09:59.129Z,99.90
2019-04-29T02:12:28.640Z,99.90
2019-04-29T02:14:58.078Z,99.90
2019-04-29T02:17:27.981Z,99.90
2019-04-29T02:19:57.806Z,99.90
2019-04-29T02:22:38.300Z,99.90
2019-04-29T02:25:09.520Z,99.90
2019-04-29T02:27:39.420Z,99.90
2019-04-29T02:30:10.682Z,99.90
2019-04-29T02:32:40.614Z,99.90
2019-04-29T02:35:10.202Z,99.90
2019-04-29T02:37:41.483Z,99.90
2019-04-29T02:40:13.097Z,99.90
2019-04-29T02:42:53.647Z,99.90
2019-04-29T02:45:25.204Z,99.90
2019-04-29T02:47:55.017Z,99.90
2019-04-29T02:50:24.690Z,99.90
2019-04-29T02:52:54.236Z,99.90
2019-04-29T02:55:25.505Z,99.90
2019-04-29T02:58:02.556Z,99.90
2019-04-29T03:00:33.699Z,99.90
2019-04-29T03:03:04.854Z,99.90
2019-04-29T03:05:39.768Z,99.90
2019-04-29T03:08:07.742Z,99.90
2019-04-29T03:10:37.329Z,99.90
2019-04-29T03:13:06.947Z,99.90
2019-04-29T03:15:39.523Z,99.90
2019-04-29T03:18:09.178Z,99.90
2019-04-29T03:20:49.223Z,99.90
2019-04-29T03:23:20.740Z,99.90
2019-04-29T03:25:50.396Z,99.90
2019-04-29T03:28:20.369Z,99.90
2019-04-29T03:30:50.032Z,99.90
2019-04-29T03:33:19.691Z,99.90
2019-04-29T03:35:49.293Z,99.90
2019-04-29T03:38:18.797Z,99.90
2019-04-29T03:40:51.112Z,99.90
2019-04-29T03:43:21.345Z,99.90
2019-04-29T03:45:50.864Z,99.90
2019-04-29T03:48:20.442Z,99.90
2019-04-29T03:50:50.202Z,99.90
2019-04-29T03:53:19.728Z,99.90
2019-04-29T03:55:50.809Z,99.90
2019-04-29T03:58:20.656Z,99.90
2019-04-29T04:00:51.876Z,99.90
2019-04-29T04:03:38.241Z,99.90
2019-04-29T04:06:15.200Z,99.90
2019-04-29T04:09:04.282Z,99.90
2019-04-29T04:11:18.078Z,99.90
2019-04-29T04:13:47.515Z,99.90
2019-04-29T04:16:27.739Z,99.90
2019-04-29T04:19:16.855Z,99.90
2019-04-29T04:21:46.823Z,99.90
2019-04-29T04:24:16.334Z,99.90
2019-04-29T04:26:45.904Z,99.90
2019-04-29T04:29:15.381Z,99.90
2019-04-29T04:31:44.901Z,99.90
2019-04-29T04:34:14.408Z,99.90
2019-04-29T04:36:43.897Z,99.90
2019-04-29T04:39:13.397Z,99.90
2019-04-29T04:41:43.259Z,99.90
2019-04-29T04:44:16.301Z,99.90
2019-04-29T04:46:45.822Z,99.90
2019-04-29T04:49:15.953Z,99.90
2019-04-29T04:51:45.613Z,99.90
2019-04-29T04:54:15.191Z,99.90
2019-04-29T04:56:44.707Z,99.90
2019-04-29T04:59:14.250Z,99.90
2019-04-29T05:01:43.770Z,99.90
2019-04-29T05:04:13.285Z,99.90
2019-04-29T05:06:42.895Z,99.90
2019-04-29T05:09:12.720Z,99.90
2019-04-29T05:11:42.431Z,99.90
2019-04-29T05:14:11.974Z,99.90
2019-04-29T05:16:41.490Z,99.90
2019-04-29T05:19:11.006Z,99.90
2019-04-29T05:21:40.569Z,99.90
2019-04-29T05:24:10.144Z,99.90
2019-04-29T05:26:39.774Z,99.90
2019-04-29T05:29:09.381Z,99.90
2019-04-29T05:31:38.892Z,99.90
2019-04-29T05:34:08.789Z,99.90
2019-04-29T05:36:39.986Z,99.90
2019-04-29T05:39:11.146Z,99.90
2019-04-29T05:41:40.682Z,99.90
2019-04-29T05:44:12.155Z,99.90
2019-04-29T05:46:43.993Z,99.90
2019-04-29T05:49:15.666Z,99.90
2019-04-29T05:51:46.854Z,99.90
2019-04-29T05:54:26.923Z,99.90
2019-04-29T05:56:55.432Z,99.90
2019-04-29T05:59:24.949Z,99.90
2019-04-29T06:01:54.735Z,99.90
2019-04-29T06:04:24.330Z,99.90
2019-04-29T06:06:53.845Z,99.90
2019-04-29T06:09:23.349Z,99.90
2019-04-29T06:11:52.833Z,99.90
2019-04-29T06:14:22.377Z,99.90
2019-04-29T06:16:52.888Z,99.90
2019-04-29T06:19:22.661Z,99.90
2019-04-29T06:21:52.097Z,99.90
2019-04-29T06:24:21.678Z,99.90
2019-04-29T06:26:51.723Z,99.90
2019-04-29T06:29:21.230Z,99.90
2019-04-29T06:31:52.574Z,99.90
2019-04-29T06:34:22.114Z,99.90
2019-04-29T06:36:51.553Z,99.90
2019-04-29T06:39:21.724Z,99.90
2019-04-29T06:41:51.634Z,99.90
2019-04-29T06:44:21.121Z,99.90
2019-04-29T06:46:54.444Z,99.90
2019-04-29T06:49:22.558Z,99.90
2019-04-29T06:51:52.077Z,99.90
2019-04-29T06:54:21.509Z,99.90
2019-04-29T06:56:51.071Z,99.90
2019-04-29T06:59:20.585Z,99.90
2019-04-29T07:01:50.108Z,99.90
2019-04-29T07:04:19.654Z,99.90
2019-04-29T07:06:57.244Z,99.90
2019-04-29T07:09:20.370Z,99.90
2019-04-29T07:11:50.382Z,99.90
2019-04-29T07:14:20.290Z,99.90
2019-04-29T07:16:49.799Z,99.90
2019-04-29T07:19:22.125Z,99.90
2019-04-29T07:21:53.984Z,99.90
2019-04-29T07:24:21.588Z,99.80
2019-04-29T07:26:51.210Z,99.90
2019-04-29T07:29:21.158Z,98.40
2019-04-29T07:31:51.093Z,97.80
2019-04-29T07:34:20.735Z,96.20
2019-04-29T07:36:53.164Z,95.50
2019-04-29T07:39:21.470Z,94.10
2019-04-29T07:41:53.771Z,94.40
2019-04-29T07:44:23.958Z,94.10
2019-04-29T07:47:01.852Z,93.80
2019-04-29T07:49:28.970Z,93.60
2019-04-29T07:51:58.868Z,93.70
2019-04-29T07:54:28.333Z,93.50
2019-04-29T07:56:57.780Z,93.20
2019-04-29T07:59:27.674Z,93.00
2019-04-29T08:01:59.910Z,91.30
2019-04-29T08:04:28.809Z,91.60
2019-04-29T08:06:58.644Z,91.10
2019-04-29T08:09:48.195Z,91.50
2019-04-29T08:12:18.517Z,90.60
2019-04-29T08:14:49.099Z,91.10
2019-04-29T08:17:18.654Z,91.30
2019-04-29T08:19:48.462Z,90.90
2019-04-29T08:22:18.409Z,90.30
2019-04-29T08:24:50.476Z,89.20
2019-04-29T08:27:19.563Z,87.20
2019-04-29T08:29:49.355Z,90.60
2019-04-29T08:32:19.281Z,87.20
2019-04-29T08:34:48.810Z,87.20
2019-04-29T08:37:18.333Z,86.50
2019-04-29T08:40:03.494Z,86.20
2019-04-29T08:42:22.304Z,83.50
2019-04-29T08:44:54.726Z,83.20
2019-04-29T08:47:31.617Z,83.40
2019-04-29T08:50:00.780Z,82.50
2019-04-29T08:52:30.367Z,81.30
2019-04-29T08:54:59.882Z,81.70
2019-04-29T08:57:31.758Z,82.00
2019-04-29T09:00:00.576Z,81.30
2019-04-29T09:02:35.057Z,79.30
2019-04-29T09:05:01.521Z,80.30
2019-04-29T09:07:31.044Z,80.00
2019-04-29T09:10:01.841Z,80.10
2019-04-29T09:12:31.829Z,79.20
2019-04-29T09:15:01.345Z,78.50
2019-04-29T09:17:30.854Z,78.10
2019-04-29T09:20:00.767Z,77.40
2019-04-29T09:22:31.995Z,75.90
2019-04-29T09:25:21.391Z,78.00
2019-04-29T09:27:52.293Z,75.10
2019-04-29T09:30:21.954Z,74.90
2019-04-29T09:32:51.806Z,73.40
2019-04-29T09:35:21.470Z,73.90
2019-04-29T09:37:53.865Z,72.60
2019-04-29T09:40:27.387Z,72.60
2019-04-29T09:43:15.901Z,72.00
2019-04-29T09:45:58.753Z,71.40
2019-04-29T09:48:27.477Z,69.70
2019-04-29T09:50:57.064Z,69.30
2019-04-29T09:53:26.694Z,67.70
2019-04-29T09:55:56.720Z,65.90
2019-04-29T09:58:26.480Z,65.70
2019-04-29T10:01:18.731Z,66.20
2019-04-29T10:03:55.849Z,65.30
2019-04-29T10:06:27.086Z,65.40
2019-04-29T10:08:56.568Z,64.20
2019-04-29T10:11:28.207Z,63.10
2019-04-29T10:13:58.322Z,64.00
2019-04-29T10:16:45.742Z,64.60
2019-04-29T10:19:33.439Z,64.40
2019-04-29T10:22:03.088Z,63.20
2019-04-29T10:24:32.999Z,63.80
2019-04-29T10:27:02.559Z,63.10
2019-04-29T10:29:32.867Z,63.00
2019-04-29T10:32:06.957Z,63.10
2019-04-29T10:34:35.833Z,62.30
2019-04-29T10:37:07.081Z,63.40
2019-04-29T10:39:46.111Z,62.30
2019-04-29T10:42:26.544Z,62.70
2019-04-29T10:45:06.669Z,62.40
2019-04-29T10:47:54.369Z,62.30
2019-04-29T10:50:36.356Z,61.20
2019-04-29T10:53:10.944Z,61.50
2019-04-29T10:55:40.094Z,61.00
2019-04-29T10:58:10.284Z,60.30
2019-04-29T11:01:12.054Z,60.30
2019-04-29T11:03:41.938Z,60.00
2019-04-29T11:06:12.086Z,59.20
2019-04-29T11:08:49.493Z,59.10
2019-04-29T11:11:23.278Z,58.30
2019-04-29T11:14:09.829Z,58.10
2019-04-29T11:16:46.480Z,56.40
2019-04-29T11:19:13.582Z,57.30
2019-04-29T11:21:43.156Z,58.60
2019-04-29T11:24:14.322Z,56.60
2019-04-29T11:26:48.486Z,56.50
2019-04-29T11:29:22.225Z,56.00
2019-04-29T11:31:53.946Z,55.70
2019-04-29T11:34:33.279Z,55.40
2019-04-29T11:37:02.422Z,56.80
2019-04-29T11:39:32.365Z,57.60
2019-04-29T11:42:05.331Z,56.90
2019-04-29T11:44:35.234Z,56.90
2019-04-29T11:47:07.955Z,57.40
2019-04-29T11:49:39.099Z,56.70
2019-04-29T11:52:10.237Z,56.40
2019-04-29T11:54:40.140Z,58.10
2019-04-29T11:57:12.995Z,57.50
2019-04-29T11:59:51.016Z,58.20
2019-04-29T12:02:44.149Z,57.50
2019-04-29T12:04:58.439Z,57.10
2019-04-29T12:07:32.556Z,56.80
2019-04-29T12:10:02.273Z,57.50
2019-04-29T12:12:31.142Z,58.10
2019-04-29T12:15:09.118Z,58.10
2019-04-29T12:17:45.004Z,59.60
2019-04-29T12:20:28.849Z,59.30
2019-04-29T12:22:58.485Z,59.70
2019-04-29T12:25:29.293Z,62.30
2019-04-29T12:28:01.805Z,62.90
2019-04-29T12:30:34.562Z,63.60
2019-04-29T12:33:14.701Z,62.80
2019-04-29T12:35:52.126Z,62.80
2019-04-29T12:38:38.812Z,62.10
2019-04-29T12:40:58.773Z,62.00
2019-04-29T12:43:36.131Z,63.00
2019-04-29T12:46:24.039Z,61.60
2019-04-29T12:48:53.627Z,62.90
2019-04-29T12:51:23.621Z,62.80
2019-04-29T12:53:53.743Z,64.20
2019-04-29T12:56:34.201Z,66.50
2019-04-29T12:59:04.472Z,68.40
2019-04-29T13:01:54.172Z,72.10
2019-04-29T13:04:36.371Z,73.80
2019-04-29T13:07:16.759Z,73.80
2019-04-29T13:09:48.233Z,74.30
2019-04-29T13:12:20.018Z,75.90
2019-04-29T13:15:03.103Z,73.40
2019-04-29T13:17:38.284Z,72.80
2019-04-29T13:20:11.878Z,74.60
2019-04-29T13:22:40.919Z,74.70
2019-04-29T13:25:15.362Z,74.30
2019-04-29T13:27:43.414Z,75.30
2019-04-29T13:30:16.214Z,76.30
2019-04-29T13:32:44.854Z,76.50
2019-04-29T13:35:14.654Z,76.80
2019-04-29T13:37:44.197Z,76.50
2019-04-29T13:40:14.726Z,77.10
2019-04-29T13:42:48.709Z,78.90
2019-04-29T13:45:20.102Z,79.70
2019-04-29T13:48:07.246Z,80.50
2019-04-29T13:50:51.553Z,82.20
2019-04-29T13:53:21.489Z,82.70
2019-04-29T13:56:10.008Z,83.50
2019-04-29T13:58:26.766Z,84.10
2019-04-29T14:01:01.898Z,85.00
2019-04-29T14:03:42.043Z,86.80
2019-04-29T14:06:14.332Z,86.10
2019-04-29T14:08:42.158Z,88.20
2019-04-29T14:11:11.691Z,90.00
2019-04-29T14:13:48.216Z,90.90
2019-04-29T14:16:34.926Z,91.80
2019-04-29T14:19:04.687Z,92.50
2019-04-29T14:21:34.204Z,92.00
2019-04-29T14:24:03.721Z,92.90
2019-04-29T14:26:36.969Z,92.10
2019-04-29T14:29:05.405Z,92.10
2019-04-29T14:31:34.946Z,93.30
2019-04-29T14:34:09.051Z,91.80
2019-04-29T14:36:38.567Z,93.30
2019-04-29T14:39:36.580Z,94.80
2019-04-29T14:42:00.247Z,94.00
2019-04-29T14:44:40.196Z,95.70
2019-04-29T14:47:27.585Z,96.30
2019-04-29T14:49:58.821Z,96.10
2019-04-29T14:52:28.482Z,98.50
2019-04-29T14:54:58.031Z,99.60
2019-04-29T14:57:27.542Z,99.70
2019-04-29T14:59:57.180Z,99.40
2019-04-29T15:02:27.704Z,99.90
2019-04-29T15:04:57.688Z,99.90
2019-04-29T15:07:29.239Z,99.90
2019-04-29T15:09:58.987Z,99.90
2019-04-29T15:12:51.110Z,99.90
2019-04-29T15:15:13.323Z,99.90
2019-04-29T15:17:47.564Z,99.90
2019-04-29T15:20:18.788Z,99.90
2019-04-29T15:22:48.295Z,99.90
2019-04-29T15:25:20.960Z,99.90
2019-04-29T15:27:49.404Z,99.90
2019-04-29T15:30:19.124Z,99.90
2019-04-29T15:32:48.764Z,99.90
2019-04-29T15:35:24.344Z,99.90
2019-04-29T15:37:51.397Z,99.90
2019-04-29T15:40:26.102Z,99.90
2019-04-29T15:42:53.524Z,99.90
2019-04-29T15:45:23.455Z,99.90
2019-04-29T15:47:53.156Z,99.90
2019-04-29T15:50:22.751Z,99.90
2019-04-29T15:52:52.610Z,99.90
2019-04-29T15:55:22.228Z,99.90
2019-04-29T15:57:52.492Z,99.90
2019-04-29T16:00:23.791Z,99.90
2019-04-29T16:02:54.228Z,99.90
2019-04-29T16:05:56.070Z,99.90
2019-04-29T16:08:21.005Z,99.90
2019-04-29T16:11:01.074Z,99.90
2019-04-29T16:13:30.578Z,99.90
2019-04-29T16:16:00.006Z,99.90
2019-04-29T16:18:29.524Z,99.90
2019-04-29T16:20:59.188Z,99.90
2019-04-29T16:23:32.928Z,99.90
2019-04-29T16:25:59.923Z,99.90
2019-04-29T16:28:31.388Z,99.90
2019-04-29T16:31:05.191Z,99.90
2019-04-29T16:33:31.825Z,99.90
2019-04-29T16:36:04.711Z,99.90
2019-04-29T16:38:33.184Z,99.90
2019-04-29T16:41:12.446Z,99.90
2019-04-29T16:43:43.275Z,99.90
2019-04-29T16:46:14.703Z,99.90
2019-04-29T16:48:44.741Z,99.90
2019-04-29T16:51:16.727Z,99.90
2019-04-29T16:53:46.591Z,99.90
2019-04-29T16:56:16.625Z,99.90
2019-04-29T16:58:47.807Z,99.90
2019-04-29T17:01:17.487Z,99.90
2019-04-29T17:03:47.005Z,99.90
2019-04-29T17:06:16.819Z,99.90
2019-04-29T17:09:05.113Z,99.90
2019-04-29T17:11:33.814Z,99.90
2019-04-29T17:14:10.093Z,99.90
2019-04-29T17:16:34.696Z,99.90
2019-04-29T17:19:06.248Z,99.90
2019-04-29T17:21:35.744Z,99.90
2019-04-29T17:24:06.056Z,99.90
2019-04-29T17:26:37.589Z,99.90
2019-04-29T17:29:38.307Z,99.90
2019-04-29T17:32:07.465Z,99.90
2019-04-29T17:34:57.918Z,99.90
2019-04-29T17:37:10.642Z,99.90
2019-04-29T17:39:40.161Z,99.90
2019-04-29T17:42:09.849Z,99.90
2019-04-29T17:44:46.467Z,99.90
2019-04-29T17:47:34.009Z,99.90
2019-04-29T17:50:06.807Z,99.90
2019-04-29T17:52:37.180Z,99.90
2019-04-29T17:55:11.439Z,99.90
2019-04-29T17:57:42.583Z,99.90
2019-04-29T18:00:15.721Z,99.90
2019-04-29T18:03:00.867Z,99.90
2019-04-29T18:05:52.205Z,99.90
2019-04-29T18:08:06.738Z,99.90
2019-04-29T18:10:41.676Z,99.90
2019-04-29T18:13:12.482Z,99.90
2019-04-29T18:15:57.914Z,99.90
2019-04-29T18:18:17.340Z,99.90
2019-04-29T18:21:06.425Z,99.90
2019-04-29T18:23:51.565Z,99.90
2019-04-29T18:26:22.527Z,99.90
2019-04-29T18:28:52.114Z,99.90
2019-04-29T18:31:21.653Z,99.90
2019-04-29T18:33:51.176Z,99.90
2019-04-29T18:36:24.159Z,99.90
2019-04-29T18:38:52.284Z,99.90
2019-04-29T18:41:26.751Z,99.90
2019-04-29T18:43:56.340Z,99.90
2019-04-29T18:46:25.895Z,99.90
2019-04-29T18:49:02.639Z,99.90
2019-04-29T18:51:28.747Z,99.90
2019-04-29T18:53:58.493Z,99.90
2019-04-29T18:56:28.157Z,99.90
2019-04-29T18:58:57.696Z,99.90
2019-04-29T19:01:28.817Z,99.90
2019-04-29T19:04:16.205Z,99.90
2019-04-29T19:06:40.880Z,99.90
2019-04-29T19:09:17.819Z,99.90
2019-04-29T19:11:43.875Z,99.90
2019-04-29T19:14:15.079Z,99.90
2019-04-29T19:16:45.880Z,99.90
2019-04-29T19:19:18.626Z,99.90
2019-04-29T19:21:47.494Z,99.90
2019-04-29T19:24:17.093Z,99.90
2019-04-29T19:26:46.625Z,99.90
2019-04-29T19:29:16.232Z,99.90
2019-04-29T19:31:49.442Z,99.90
2019-04-29T19:34:18.644Z,99.90
2019-04-29T19:36:50.814Z,99.90
2019-04-29T19:39:21.691Z,99.90
2019-04-29T19:41:51.683Z,99.90
2019-04-29T19:44:21.591Z,99.90
2019-04-29T19:46:51.169Z,99.90
2019-04-29T19:49:20.904Z,99.90
2019-04-29T19:51:50.449Z,99.90
2019-04-29T19:54:24.666Z,99.90
2019-04-29T19:57:10.451Z,99.90
2019-04-29T19:59:49.902Z,99.90
2019-04-29T20:02:11.646Z,99.90
2019-04-29T20:04:52.201Z,99.90
2019-04-29T20:07:21.271Z,99.90
2019-04-29T20:09:59.659Z,99.90
2019-04-29T20:12:25.356Z,99.90
2019-04-29T20:14:59.720Z,99.90
2019-04-29T20:17:30.597Z,99.90
2019-04-29T20:20:05.299Z,99.90
2019-04-29T20:22:37.037Z,99.90
2019-04-29T20:25:07.410Z,99.90
2019-04-29T20:27:37.740Z,99.90
2019-04-29T20:30:16.271Z,99.90
2019-04-29T20:32:39.833Z,99.90
2019-04-29T20:35:09.978Z,99.90
2019-04-29T20:37:39.696Z,99.90
2019-04-29T20:40:09.535Z,99.90
2019-04-29T20:42:40.400Z,99.90
2019-04-29T20:45:11.386Z,99.90
2019-04-29T20:47:42.197Z,99.90
2019-04-29T20:50:13.992Z,99.90
2019-04-29T20:53:01.919Z,99.90
2019-04-29T20:55:32.009Z,99.90
2019-04-29T20:58:00.019Z,99.90
2019-04-29T21:00:31.453Z,99.90
2019-04-29T21:03:04.166Z,99.90
2019-04-29T21:05:32.367Z,99.90
2019-04-29T21:08:03.460Z,99.90
2019-04-29T21:10:38.011Z,99.90
2019-04-29T21:13:19.885Z,99.90
2019-04-29T21:16:05.250Z,99.90
2019-04-29T21:18:35.426Z,99.90
2019-04-29T21:21:07.896Z,99.90
2019-04-29T21:23:37.615Z,99.90
2019-04-29T21:26:08.734Z,99.90
2019-04-29T21:28:41.229Z,99.90
2019-04-29T21:31:11.810Z,99.90
2019-04-29T21:33:40.723Z,99.90
2019-04-29T21:36:12.071Z,99.90
2019-04-29T21:38:45.057Z,99.90
2019-04-29T21:41:20.251Z,99.90
2019-04-29T21:43:53.481Z,99.90
2019-04-29T21:46:27.918Z,99.90
2019-04-29T21:48:51.374Z,99.90
2019-04-29T21:51:21.059Z,99.90
2019-04-29T21:53:50.570Z,99.90
2019-04-29T21:56:20.008Z,99.90
2019-04-29T21:58:49.476Z,99.90
2019-04-29T22:01:19.262Z,99.90
2019-04-29T22:03:48.781Z,99.90
2019-04-29T22:06:18.320Z,99.90
2019-04-29T22:08:48.126Z,99.90
2019-04-29T22:11:17.646Z,99.90
2019-04-29T22:13:47.412Z,99.90
2019-04-29T22:16:17.668Z,99.90
2019-04-29T22:18:52.000Z,99.90
2019-04-29T22:21:22.100Z,99.90
2019-04-29T22:23:51.031Z,99.90
2019-04-29T22:26:23.221Z,99.90
2019-04-29T22:28:53.338Z,99.90
2019-04-29T22:31:28.359Z,99.90
2019-04-29T22:33:55.331Z,99.90
2019-04-29T22:36:25.897Z,99.90
2019-04-29T22:38:55.807Z,99.90
2019-04-29T22:41:43.696Z,99.90
2019-04-29T22:44:21.568Z,99.90
2019-04-29T22:46:47.238Z,99.90
2019-04-29T22:49:24.575Z,99.90
2019-04-29T22:51:49.689Z,99.90
2019-04-29T22:54:21.983Z,99.90
2019-04-29T22:56:54.179Z,99.90
2019-04-29T22:59:25.361Z,99.90
2019-04-29T23:01:55.643Z,99.90
2019-04-29T23:04:25.424Z,99.90
2019-04-29T23:06:54.932Z,99.90
2019-04-29T23:09:24.371Z,99.90
2019-04-29T23:11:55.690Z,99.90
2019-04-29T23:14:25.337Z,99.90
2019-04-29T23:16:55.577Z,99.90
2019-04-29T23:19:26.008Z,99.90
2019-04-29T23:22:06.111Z,99.90
2019-04-29T23:24:55.915Z,99.90
2019-04-29T23:27:25.897Z,99.90
2019-04-29T23:29:57.740Z,99.90
2019-04-29T23:32:27.288Z,99.90
2019-04-29T23:34:57.227Z,99.90
2019-04-29T23:37:29.856Z,99.90
2019-04-29T23:39:59.678Z,99.90
2019-04-29T23:42:31.026Z,99.90
2019-04-29T23:45:00.540Z,99.90
2019-04-29T23:47:30.436Z,99.90
2019-04-29T23:49:59.876Z,99.90
2019-04-29T23:52:29.753Z,99.90
2019-04-29T23:54:59.293Z,99.90
2019-04-29T23:57:42.788Z,99.90
